• Join FlightAware (Why Join?)
  • Login
  • US Flag 
03:43AM EDT


 

Airport Tracker/Info


-or-


 

Live Flight TrackerFlight Track Log ✈ DAL1283 ✈ 01-May-2014 ✈ KATL - KFLL

Flight Track Log - Related Links

Times and Time Zones

All times are in EDT time to prevent confusion due to time zone crossing. See the DAL1283 flight status page for this flight to view local times or setup timezone preferences in your user account.

Time Position Orientation Groundspeed Altitude Reporting Facility
EDT Latitude Longitude Course Direction KTS MPH feet Rate Location/Type
07:35PM 33.6333 -84.4500 180° South 149 171 2,300  Level Atlanta TRACON
07:36PM 33.6333 -84.5333 270° West 235 270 4,500 3,120 Climbing Atlanta TRACON
07:37PM 33.6167 -84.6000 253° West 266 306 8,600 2,340 Climbing Atlanta TRACON
07:38PM 33.5111 -84.5919 176° South 281 323 10,000 780 Climbing Atlanta Center
07:39PM 33.1615 -84.2111 168° South  Level FlightAware Approximate
07:39PM 33.4322 -84.5367 150° Southeast 294 338 10,500  Level Atlanta Center
07:40PM 33.0485 -84.1833 180° South  Level FlightAware Approximate
07:40PM 33.3447 -84.4642 145° Southeast 345 397 13,600  Level Atlanta Center
07:41PM 33.2553 -84.3867 144° Southeast 388 447 16,500 2,760 Climbing Atlanta Center
07:42PM 33.1636 -84.3142 146° Southeast 402 463 19,200 1,920 Climbing Atlanta Center
07:43PM 33.0781 -84.2419 145° Southeast 411 473 20,400 1,500 Climbing Atlanta Center
07:44PM 32.9739 -84.1625 147° Southeast 436 502 22,300 1,920 Climbing Atlanta Center
07:45PM 32.8550 -84.1131 161° South 436 502 24,300 1,860 Climbing Atlanta Center
07:46PM 32.7358 -84.0686 163° South 447 514 26,100 1,740 Climbing Atlanta Center
07:47PM 32.6169 -84.0167 160° South 452 520 27,800 1,560 Climbing Atlanta Center
07:48PM 32.4939 -83.9675 161° South 463 533 29,300 1,740 Climbing Atlanta Center
07:49PM 32.3706 -83.9183 161° South 463 533 31,300 1,920 Climbing Atlanta Center
07:50PM 32.2517 -83.8694 161° South 463 533 33,200 1,680 Climbing Atlanta Center
07:52PM 32.0653 -83.7922 161° South 439 505 35,800 1,440 Climbing Jacksonville Center
07:53PM 31.9508 -83.7447 161° South 439 505 37,000 540 Climbing Jacksonville Center
07:54PM 31.8258 -83.6944 161° South 427 491 36,900  Descending Jacksonville Center
07:55PM 31.7111 -83.6447 160° South 444 511 37,000 600 Climbing Jacksonville Center
07:56PM 31.6028 -83.6047 163° South 444 511 38,200 960 Climbing Jacksonville Center
07:57PM 31.4967 -83.5625 161° South 431 496 39,000 360 Climbing Jacksonville Center
07:58PM 31.3778 -83.5156 161° South 418 481 39,000  Level Jacksonville Center
07:59PM 31.2675 -83.4736 162° South 418 481 39,000  Level Jacksonville Center
08:00PM 31.1547 -83.4292 161° South 418 481 39,000  Level Jacksonville Center
08:01PM 31.0444 -83.3847 161° South 423 487 39,000  Level Jacksonville Center
08:02PM 30.9317 -83.3406 161° South 423 487 39,000  Level Jacksonville Center
08:08PM 30.2935 -83.0380 157° South 433 498 39,000  Level FlightAware ADS-B (KMCO)
08:08PM 30.2250 -83.0038 157° South 434 499 39,000  Level FlightAware ADS-B (KMCO)
08:09PM 30.1607 -82.9718 157° South 437 503 39,000  Level FlightAware ADS-B (KMCO)
08:10PM 30.0717 -82.9274 157° South 439 505 39,000  Level FlightAware ADS-B (KMCO)
08:10PM 30.0044 -82.8939 157° South 437 503 39,000  Level FlightAware ADS-B (KMCO)
08:11PM 29.8955 -82.8397 157° South 435 501 39,000  Level FlightAware ADS-B (KMCO)
08:12PM 29.8084 -82.7966 157° South 435 501 39,000  Level FlightAware ADS-B (KMCO)
08:13PM 29.6614 -82.7239 157° South 433 498 39,000  Level FlightAware ADS-B (KMCO)
08:14PM 29.5886 -82.6882 157° South 438 504 39,000  Level FlightAware ADS-B (KMCO)
08:15PM 29.5202 -82.6546 157° South 442 509 39,000  Level FlightAware ADS-B (KMCO)
08:15PM 29.4365 -82.6134 157° South 443 510 39,000  Level FlightAware ADS-B (KMCO)
08:16PM 29.3605 -82.5760 157° South 441 507 39,000  Level FlightAware ADS-B (KMCO)
08:17PM 29.2908 -82.5418 157° South 437 503 39,000  Level FlightAware ADS-B (KMCO)
08:18PM 29.1764 -82.4865 159° South 436 502 39,000  Level FlightAware ADS-B (KMCO)
08:18PM 29.1131 -82.4633 168° South 427 491 39,000  Level FlightAware ADS-B (KMCO)
08:19PM 29.0220 -82.4455 173° South 421 484 39,000  Level FlightAware ADS-B (KMCO)
08:20PM 28.9500 -82.4347 172° South 423 487 39,000  Level FlightAware ADS-B (KMCO)
08:20PM 28.8648 -82.4211 172° South 425 489 39,000  Level FlightAware ADS-B (KMCO)
08:21PM 28.7974 -82.4096 171° South 425 489 39,000  Level FlightAware ADS-B (KMCO)
08:22PM 28.6349 -82.3816 172° South 425 489 39,000  Level FlightAware ADS-B (KMCO)
08:23PM 28.5543 -82.3679 172° South 428 493 39,000  Level FlightAware ADS-B (KMCO)
08:24PM 28.4741 -82.3545 172° South 433 498 39,000  Level FlightAware ADS-B (KMCO)
08:24PM 28.3988 -82.3419 172° South 438 504 39,000  Level FlightAware ADS-B (KMCO)
08:25PM 28.3155 -82.3280 172° South 440 506 39,000  Level FlightAware ADS-B (KMCO)
08:26PM 28.2678 -82.3200 172° South 440 506 39,000  Level FlightAware ADS-B (KMCO)
08:26PM 28.1561 -82.3014 172° South 438 504 39,000  Level FlightAware ADS-B (KMCO)
08:27PM 28.0701 -82.2872 172° South 437 503 39,000  Level FlightAware ADS-B (KMCO)
08:28PM 27.9916 -82.2741 172° South 438 504 39,000 -300 Level FlightAware ADS-B (KMCO)
08:28PM 27.9075 -82.2602 172° South 440 506 38,600 -1,440 Descending FlightAware ADS-B (KMCO)
08:29PM 27.8260 -82.2468 172° South 445 512 37,100 -2,520 Descending FlightAware ADS-B (KMCO)
08:30PM 27.7495 -82.2340 172° South 450 518 35,400 -2,580 Descending FlightAware ADS-B (KMCO)
08:30PM 27.6713 -82.2213 172° South 455 524 33,700 -1,440 Descending FlightAware ADS-B (KMCO)
08:31PM 27.5333 -82.1988 172° South 477 549 33,000 -480 Descending FlightAware ADS-B (KMCO)
08:32PM 27.4675 -82.1878 172° South 475 547 33,000  Level FlightAware ADS-B (KMCO)
08:33PM 27.3430 -82.1675 172° South 466 536 33,000  Level FlightAware ADS-B (KMCO)
08:34PM 27.2280 -82.1489 172° South 466 536 33,000  Level FlightAware ADS-B (KMCO)
08:35PM 27.1211 -82.1308 172° South 466 536 33,000  Level FlightAware ADS-B (KMCO)
08:35PM 27.0439 -82.1183 172° South 462 532 33,000  Level FlightAware ADS-B (KMCO)
08:36PM 26.9787 -82.1073 171° South 461 531 33,000 -120 Level FlightAware ADS-B (KMCO)
08:36PM 26.8837 -82.0908 171° South 463 533 32,900 -1,440 Descending FlightAware ADS-B (KMCO)
08:37PM 26.7981 -82.0763 174° South 466 536 31,000 -2,880 Descending FlightAware ADS-B (KMCO)
08:37PM 26.7550 -82.0767 187° South 460 529 30,000 -2,400 Descending FlightAware ADS-B (KMCO)
08:38PM 26.7166 -82.0864 200° South 446 513 29,400 -1,020 Descending FlightAware ADS-B (KMCO)
08:38PM 26.6372 -82.1251 201° Southwest 444 511 29,000 -600 Descending FlightAware ADS-B (KMCO)
08:39PM 26.5969 -82.1366 188° South 463 533 28,800 -900 Descending FlightAware ADS-B (KMCO)
08:39PM 26.5540 -82.1386 177° South 472 543 28,400 -720 Descending FlightAware ADS-B (KMCO)
08:40PM 26.4646 -82.1282 174° South 461 531 28,100 -1,140 Descending FlightAware ADS-B (KMCO)
08:40PM 26.3808 -82.1182 172° South 447 514 26,900 -2,040 Descending FlightAware ADS-B (KMCO)
08:41PM 26.3602 -82.1134 160° South 445 512 26,100 -2,520 Descending FlightAware ADS-B (KMCO)
08:41PM 26.2732 -82.0560 133° Southeast 452 520 24,400 -2,040 Descending FlightAware ADS-B (KMCO)
08:42PM 26.2489 -82.0199 121° Southeast 455 524 24,100 -480 Descending FlightAware ADS-B (KMCO)
08:42PM 26.2181 -81.9550 113° Southeast 458 527 24,000 -600 Descending FlightAware ADS-B (KMCO)
08:43PM 26.1922 -81.8872 113° Southeast 412 474 23,500 -1,680 Descending Miami Center
08:44PM 26.1508 -81.7561 109° East 425 489 21,400 -2,100 Descending Miami Center
08:45PM 26.1111 -81.6342 110° East 425 489 19,300 -2,100 Descending Miami Center
08:46PM 26.0747 -81.5264 111° Southeast 416 479 17,200 -2,040 Descending Miami Center
08:47PM 26.0367 -81.4117 110° East 406 467 15,300 -2,400 Descending Miami Center
08:48PM 26.0025 -81.3042 109° East 385 443 12,500 -2,400 Descending Miami Center
08:49PM 25.9678 -81.2011 111° Southeast 365 420 10,500 -1,800 Descending Miami Center
08:49PM 25.9408 -81.1308 113° Southeast 297 342 9,500 -1,740 Descending Miami Center
08:50PM 25.9353 -81.1006 102° East 336 387 8,800 -1,380 Descending Miami Center
08:50PM 25.9139 -81.0469 114° Southeast 287 330 8,100 -840 Descending Miami Center
08:51PM 25.9064 -81.0189 107° East 303 349 8,000 -840 Descending Miami Center
08:52PM 25.8933 -80.9653 105° East 276 318 7,300 -1,140 Descending Miami Center
08:52PM 25.9025 -80.9356 71° East 267 307 6,900 -1,200 Descending Miami Center
08:53PM 25.9247 -80.8856 64° Northeast 274 315 6,100 -900 Descending Miami Center
08:53PM 25.9378 -80.8606 60° Northeast 255 293 6,000  Descending Miami Center
08:54PM 25.9581 -80.8081 67° East 275 316 6,100  Climbing Miami Center
08:54PM 25.9692 -80.7831 64° Northeast 262 302 6,000 -120 Descending Miami Center
08:55PM 26.0006 -80.7078 65° Northeast 267 307 6,000  Level Miami Center
08:56PM 26.0253 -80.6417 67° East 273 314 6,000  Level Miami Center
08:57PM 26.0606 -80.5686 62° Northeast 231 266 6,100 -120 Climbing Miami Center
08:58PM 26.0747 -80.5044 76° East 232 267 5,800 -900 Descending Miami Center
08:59PM 26.0786 -80.4258 87° East 231 266 4,400 -1,200 Descending Miami Center
09:00PM 26.0758 -80.3681 93° East 206 237 3,400 -1,020 Descending Miami Center
09:01PM 26.0750 -80.3100 91° East 191 220 2,500 -1,020 Descending Miami Center
09:02PM 26.0747 -80.2408 90° East 188 216 1,300 -900 Descending Miami Center
09:03PM 26.0736 -80.1992 92° East 132 152 600 -720 Descending Miami Center